Decoded Metar for RPLB (OLONGAPO/SUBIC in PHILIPPINES) (IATA:N/A) | Meteo·Mobile Aviation Weather
aviador You're here:

RPLB Decoded Metar

OLONGAPO/SUBIC in PHILIPPINES
Report Time2019-03-21 21:00:00
UTC Time2019-03-21 21:45:13
Flight Rules vfr VFR
WindVRB at 03 kt
Visibility9999 m
Phenomena:N/A
Clouds:Few 020 Hf
Expected CloudBase > 1,200 ft AGL from Temp-Dew spread
CeilingNone
Temp23°C (ISA +8)
Dew Point20°C (83% RH)
QNH1012 hPa
Density Alt1,342 ft
Elevation56 ft
Report Wrong Elevation
Raw Report
METAR RPLB 212100Z VRB03KT 9999 FEW020 23/20 Q1012 NOSIG RMK A2988=

Extra information for RPLB:More info

Metar Taf Metar & Taf Last 4 Metars F.Rules Stats Wind Profile Meteogram Temp Stats Airport Information Weather charts Add Link Nearby VenuesMetar ALERT Operation Metar Decoded Social comments